createdAt,value
2023-03-06T00:00:30.492Z,6.80
2023-03-06T00:02:59.489Z,8.03
2023-03-06T00:05:28.304Z,8.00
2023-03-06T00:07:56.735Z,7.20
2023-03-06T00:10:27.435Z,7.63
2023-03-06T00:12:56.427Z,7.43
2023-03-06T00:15:25.708Z,6.63
2023-03-06T00:17:54.179Z,7.17
2023-03-06T00:20:23.060Z,8.63
2023-03-06T00:22:52.003Z,8.43
2023-03-06T00:25:21.296Z,9.40
2023-03-06T00:27:51.497Z,8.60
2023-03-06T00:30:21.231Z,8.53
2023-03-06T00:32:49.865Z,8.70
2023-03-06T00:35:18.749Z,8.57
2023-03-06T00:37:47.237Z,10.70
2023-03-06T00:40:17.108Z,9.13
2023-03-06T00:42:45.697Z,9.37
2023-03-06T00:45:15.739Z,9.20
2023-03-06T00:47:44.304Z,8.97
2023-03-06T00:50:13.362Z,9.97
2023-03-06T00:52:42.115Z,10.00
2023-03-06T00:55:11.317Z,9.67
2023-03-06T00:57:39.694Z,10.10
2023-03-06T01:00:08.763Z,10.60
2023-03-06T01:02:38.525Z,11.53
2023-03-06T01:05:07.584Z,10.87
2023-03-06T01:07:37.013Z,11.00
2023-03-06T01:10:05.691Z,11.03
2023-03-06T01:12:34.034Z,11.40
2023-03-06T01:15:02.531Z,10.73
2023-03-06T01:17:30.908Z,12.93
2023-03-06T01:20:00.849Z,11.93
2023-03-06T01:22:29.186Z,14.03
2023-03-06T01:24:57.638Z,12.80
2023-03-06T01:27:26.075Z,13.60
2023-03-06T01:29:54.608Z,12.80
2023-03-06T01:32:22.984Z,14.07
2023-03-06T01:34:51.448Z,14.50
2023-03-06T01:37:21.359Z,13.90
2023-03-06T01:39:49.991Z,15.03
2023-03-06T01:42:18.427Z,13.90
2023-03-06T01:45:00.046Z,14.60
2023-03-06T01:47:28.425Z,15.33
2023-03-06T01:49:57.830Z,14.97
2023-03-06T01:52:28.338Z,14.70
2023-03-06T01:54:59.225Z,15.60
2023-03-06T01:57:29.494Z,14.13
2023-03-06T02:00:00.909Z,15.10
2023-03-06T02:02:30.529Z,15.27
2023-03-06T02:05:00.800Z,15.33
2023-03-06T02:07:30.646Z,15.57
2023-03-06T02:09:59.160Z,14.77
2023-03-06T02:12:28.088Z,14.17
2023-03-06T02:14:56.542Z,14.77
2023-03-06T02:17:25.927Z,14.73
2023-03-06T02:19:56.055Z,14.27
2023-03-06T02:22:24.877Z,15.30
2023-03-06T02:24:56.940Z,16.37
2023-03-06T02:27:27.200Z,14.20
2023-03-06T02:29:55.612Z,16.90
2023-03-06T02:32:23.824Z,14.73
2023-03-06T02:34:55.060Z,16.00
2023-03-06T02:37:24.007Z,16.03
2023-03-06T02:39:55.121Z,16.33
2023-03-06T02:42:24.495Z,14.33
2023-03-06T02:44:55.484Z,14.63
2023-03-06T02:47:23.884Z,15.40
2023-03-06T02:49:52.355Z,16.13
2023-03-06T02:52:20.919Z,15.87
2023-03-06T02:54:49.371Z,14.40
2023-03-06T02:57:17.746Z,17.57
2023-03-06T02:59:46.256Z,16.20
2023-03-06T03:02:16.145Z,15.20
2023-03-06T03:04:44.498Z,14.27
2023-03-06T03:07:12.971Z,15.10
2023-03-06T03:09:41.292Z,13.53
2023-03-06T03:12:10.022Z,14.33
2023-03-06T03:14:38.406Z,11.63
2023-03-06T03:17:06.901Z,10.90
2023-03-06T03:19:36.829Z,8.30
2023-03-06T03:22:05.196Z,7.47
2023-03-06T03:24:33.699Z,7.17
2023-03-06T03:27:02.222Z,8.97
2023-03-06T03:29:30.582Z,7.27
2023-03-06T03:31:58.994Z,7.43
2023-03-06T03:34:27.442Z,7.27
2023-03-06T03:36:57.173Z,6.97
2023-03-06T03:39:25.542Z,6.57
2023-03-06T03:41:53.862Z,7.13
2023-03-06T03:44:22.605Z,5.33
2023-03-06T03:46:51.146Z,6.33
2023-03-06T03:49:19.569Z,6.90
2023-03-06T03:51:48.061Z,6.37
2023-03-06T03:54:18.001Z,5.70
2023-03-06T03:56:46.504Z,6.80
2023-03-06T03:59:14.887Z,6.23
2023-03-06T04:01:44.735Z,6.53
2023-03-06T04:04:13.223Z,4.83
2023-03-06T04:06:41.766Z,6.40
2023-03-06T04:09:10.172Z,5.77
2023-03-06T04:11:40.066Z,5.87
2023-03-06T04:14:09.781Z,6.57
2023-03-06T04:16:38.239Z,6.33
2023-03-06T04:19:06.740Z,7.50
2023-03-06T04:21:35.150Z,6.30
2023-03-06T04:24:03.699Z,6.73
2023-03-06T04:26:32.250Z,7.63
2023-03-06T04:29:02.055Z,7.27
2023-03-06T04:31:30.454Z,7.77
2023-03-06T04:33:58.820Z,6.97
2023-03-06T04:36:28.824Z,7.43
2023-03-06T04:38:57.225Z,6.87
2023-03-06T04:41:25.650Z,9.10
2023-03-06T04:43:54.181Z,9.27
2023-03-06T04:46:24.190Z,10.27
2023-03-06T04:48:52.977Z,10.07
2023-03-06T04:51:21.385Z,10.57
2023-03-06T04:53:49.767Z,11.47
2023-03-06T04:56:18.206Z,10.50
2023-03-06T04:58:46.880Z,9.33
2023-03-06T05:01:15.473Z,10.90
2023-03-06T05:03:45.398Z,9.47
2023-03-06T05:06:14.920Z,10.70
2023-03-06T05:08:43.502Z,9.10
2023-03-06T05:11:11.984Z,9.73
2023-03-06T05:13:40.548Z,8.90
2023-03-06T05:16:09.739Z,9.53
2023-03-06T05:18:38.492Z,9.13
2023-03-06T05:21:08.492Z,8.63
2023-03-06T05:23:38.577Z,8.20
2023-03-06T05:26:08.902Z,8.17
2023-03-06T05:28:37.367Z,8.30
2023-03-06T05:31:06.047Z,8.03
2023-03-06T05:33:34.672Z,7.23
2023-03-06T05:36:03.423Z,7.17
2023-03-06T05:38:33.803Z,7.37
2023-03-06T05:41:02.171Z,7.13
2023-03-06T05:43:30.525Z,7.47
2023-03-06T05:46:02.807Z,7.03
2023-03-06T05:48:31.314Z,7.60
2023-03-06T05:51:00.166Z,6.47
2023-03-06T05:53:29.365Z,6.67
2023-03-06T05:55:59.915Z,5.67
2023-03-06T05:58:28.617Z,5.73
2023-03-06T06:00:57.013Z,6.20
2023-03-06T06:03:25.810Z,6.67
2023-03-06T06:05:54.670Z,6.23
2023-03-06T06:08:23.165Z,5.47
2023-03-06T06:10:53.401Z,7.57
2023-03-06T06:13:23.353Z,6.93
2023-03-06T06:15:51.908Z,6.80
2023-03-06T06:18:20.427Z,6.90
2023-03-06T06:20:48.967Z,7.07
2023-03-06T06:23:17.498Z,7.93
2023-03-06T06:25:46.012Z,6.33
2023-03-06T06:28:14.382Z,7.50
2023-03-06T06:30:44.087Z,8.70
2023-03-06T06:33:12.550Z,6.67
2023-03-06T06:35:41.155Z,7.43
2023-03-06T06:38:09.537Z,8.07
2023-03-06T06:40:37.550Z,8.00
2023-03-06T06:43:05.931Z,8.33
2023-03-06T06:45:34.525Z,7.70
2023-03-06T06:48:04.332Z,8.80
2023-03-06T06:50:32.682Z,8.43
2023-03-06T06:53:01.031Z,7.70
2023-03-06T06:55:29.431Z,7.40
2023-03-06T06:57:58.017Z,7.63
2023-03-06T07:00:27.652Z,7.10
2023-03-06T07:02:56.056Z,7.47
2023-03-06T07:05:25.856Z,6.90
2023-03-06T07:07:54.148Z,5.90
2023-03-06T07:10:22.737Z,5.80
2023-03-06T07:12:51.062Z,5.40
2023-03-06T07:15:19.687Z,5.77
2023-03-06T07:17:50.013Z,7.03
2023-03-06T07:20:19.111Z,6.57
2023-03-06T07:22:51.720Z,6.40
2023-03-06T07:25:20.757Z,6.93
2023-03-06T07:27:53.675Z,6.80
2023-03-06T07:30:23.129Z,6.40
2023-03-06T07:32:53.863Z,6.70
2023-03-06T07:35:22.538Z,6.70
2023-03-06T07:37:52.286Z,6.67
2023-03-06T07:40:20.940Z,7.03
2023-03-06T07:42:49.432Z,8.20
2023-03-06T07:45:17.955Z,7.40
2023-03-06T07:47:46.455Z,8.50
2023-03-06T07:50:15.062Z,9.10
2023-03-06T07:52:43.418Z,9.90
2023-03-06T07:55:13.773Z,9.97
2023-03-06T07:57:42.108Z,10.37
2023-03-06T08:00:12.793Z,11.00
2023-03-06T08:02:41.540Z,10.97
2023-03-06T08:05:10.337Z,11.83
2023-03-06T08:07:38.812Z,10.17
2023-03-06T08:10:07.821Z,12.27
2023-03-06T08:12:37.216Z,11.30
2023-03-06T08:15:05.910Z,11.60
2023-03-06T08:17:34.236Z,11.17
2023-03-06T08:20:02.270Z,11.50
2023-03-06T08:22:30.584Z,11.83
2023-03-06T08:24:58.993Z,10.57
2023-03-06T08:27:27.488Z,11.47
2023-03-06T08:29:57.173Z,12.50
2023-03-06T08:32:25.572Z,10.63
2023-03-06T08:34:54.002Z,10.90
2023-03-06T08:37:22.441Z,10.83
2023-03-06T08:39:50.866Z,10.50
2023-03-06T08:42:20.122Z,11.13
2023-03-06T08:44:48.488Z,10.80
2023-03-06T08:47:18.221Z,11.57
2023-03-06T08:49:46.636Z,11.80
2023-03-06T08:52:16.966Z,11.70
2023-03-06T08:54:45.040Z,12.20
2023-03-06T08:57:13.349Z,11.57
2023-03-06T08:59:42.840Z,11.07
2023-03-06T09:02:15.143Z,11.60
2023-03-06T09:04:44.987Z,9.60
2023-03-06T09:07:13.389Z,11.63
2023-03-06T09:09:42.238Z,11.17
2023-03-06T09:12:10.603Z,10.50
2023-03-06T09:14:38.970Z,11.27
2023-03-06T09:17:07.412Z,10.60
2023-03-06T09:19:35.776Z,11.80
2023-03-06T09:22:05.565Z,10.80
2023-03-06T09:24:33.947Z,11.87
2023-03-06T09:27:02.408Z,12.43
2023-03-06T09:29:30.777Z,9.63
2023-03-06T09:31:59.117Z,12.30
2023-03-06T09:34:27.778Z,11.13
2023-03-06T09:36:57.675Z,10.97
2023-03-06T09:39:28.244Z,12.43
2023-03-06T09:41:57.840Z,11.60
2023-03-06T09:44:28.544Z,11.03
2023-03-06T09:47:09.757Z,12.03
2023-03-06T09:49:40.515Z,11.07
2023-03-06T09:52:16.724Z,10.67
2023-03-06T09:54:47.316Z,11.70
2023-03-06T09:57:20.549Z,13.33
2023-03-06T09:59:50.413Z,12.93
2023-03-06T10:02:22.399Z,12.60
2023-03-06T10:04:52.184Z,11.33
2023-03-06T10:07:22.617Z,13.10
2023-03-06T10:09:53.435Z,13.07
2023-03-06T10:12:25.992Z,15.00
2023-03-06T10:15:01.552Z,13.30
2023-03-06T10:17:33.036Z,13.00
2023-03-06T10:20:01.806Z,12.50
2023-03-06T10:22:33.097Z,13.03
2023-03-06T10:25:05.166Z,14.87
2023-03-06T10:27:40.856Z,15.93
2023-03-06T10:30:19.491Z,14.30
2023-03-06T10:32:49.929Z,15.53
2023-03-06T10:35:20.433Z,16.47
2023-03-06T10:37:49.461Z,16.00
2023-03-06T10:40:21.600Z,17.50
2023-03-06T10:42:58.693Z,16.33
2023-03-06T10:45:49.328Z,14.90
2023-03-06T10:48:20.339Z,14.57
2023-03-06T10:50:48.771Z,16.67
2023-03-06T10:53:24.840Z,15.87
2023-03-06T10:55:56.329Z,11.83
2023-03-06T10:58:25.822Z,5.80
2023-03-06T11:01:05.499Z,11.40
2023-03-06T11:03:33.905Z,10.90
2023-03-06T11:06:04.085Z,9.63
2023-03-06T11:08:33.060Z,7.80
2023-03-06T11:11:04.068Z,7.73
2023-03-06T11:13:33.804Z,7.07
2023-03-06T11:16:04.027Z,7.30
2023-03-06T11:18:35.149Z,7.23
2023-03-06T11:21:05.053Z,7.70
2023-03-06T11:23:44.315Z,6.67
2023-03-06T11:26:22.428Z,7.00
2023-03-06T11:28:55.760Z,6.83
2023-03-06T11:31:25.930Z,7.03
2023-03-06T11:33:56.244Z,6.67
2023-03-06T11:36:27.345Z,8.07
2023-03-06T11:38:56.298Z,8.73
2023-03-06T11:41:33.248Z,10.80
2023-03-06T11:44:06.382Z,10.20
2023-03-06T11:46:38.795Z,9.80
2023-03-06T11:49:12.466Z,10.27
2023-03-06T11:51:43.236Z,9.63
2023-03-06T11:54:14.559Z,9.57
2023-03-06T11:56:52.568Z,9.17
2023-03-06T11:59:29.004Z,9.90
2023-03-06T12:02:00.683Z,8.10
2023-03-06T12:04:51.073Z,9.17
2023-03-06T12:07:23.499Z,7.83
2023-03-06T12:09:56.407Z,8.43
2023-03-06T12:12:31.342Z,7.77
2023-03-06T12:15:08.738Z,7.50
2023-03-06T12:17:43.672Z,8.37
2023-03-06T12:20:19.121Z,8.40
2023-03-06T12:22:57.543Z,8.13
2023-03-06T12:25:31.235Z,7.10
2023-03-06T12:28:06.255Z,6.80
2023-03-06T12:30:53.349Z,8.17
2023-03-06T12:33:28.843Z,7.27
2023-03-06T12:36:04.822Z,8.33
2023-03-06T12:38:43.723Z,7.03
2023-03-06T12:41:19.304Z,6.90
2023-03-06T12:44:02.544Z,6.03
2023-03-06T12:46:32.268Z,5.33
2023-03-06T12:49:05.030Z,5.13
2023-03-06T12:51:33.828Z,5.17
2023-03-06T12:54:03.633Z,4.47
2023-03-06T12:56:33.352Z,5.57
2023-03-06T12:59:03.048Z,4.27
2023-03-06T13:01:51.485Z,5.50
2023-03-06T13:04:28.665Z,6.13
2023-03-06T13:07:04.726Z,6.33
2023-03-06T13:09:36.587Z,5.50
2023-03-06T13:12:27.691Z,5.77
2023-03-06T13:14:57.426Z,6.20
2023-03-06T13:17:29.123Z,6.60
2023-03-06T13:20:15.501Z,5.77
2023-03-06T13:22:44.665Z,5.20
2023-03-06T13:25:32.641Z,5.77
2023-03-06T13:28:05.246Z,5.17
2023-03-06T13:30:46.850Z,5.53
2023-03-06T13:33:46.333Z,5.27
2023-03-06T13:36:29.884Z,5.13
2023-03-06T13:39:00.108Z,5.33
2023-03-06T13:41:39.295Z,8.77
2023-03-06T13:44:22.598Z,8.47
2023-03-06T13:46:57.985Z,7.43
2023-03-06T13:49:26.824Z,6.33
2023-03-06T13:52:08.123Z,6.17
2023-03-06T13:54:45.289Z,5.80
2023-03-06T13:57:24.142Z,5.83
2023-03-06T14:00:08.736Z,6.10
2023-03-06T14:02:56.297Z,5.63
2023-03-06T14:05:25.626Z,6.13
2023-03-06T14:08:05.606Z,5.10
2023-03-06T14:10:36.457Z,4.67
2023-03-06T14:13:06.298Z,4.70
2023-03-06T14:15:44.689Z,4.63
2023-03-06T14:18:17.638Z,4.90
2023-03-06T14:20:46.866Z,4.60
2023-03-06T14:23:26.326Z,4.53
2023-03-06T14:25:57.211Z,5.07
2023-03-06T14:28:26.308Z,4.33
2023-03-06T14:30:55.866Z,4.87
2023-03-06T14:33:32.710Z,4.03
2023-03-06T14:36:02.569Z,4.53
2023-03-06T14:38:34.228Z,3.77
2023-03-06T14:41:02.830Z,4.23
2023-03-06T14:43:32.394Z,4.50
2023-03-06T14:46:02.315Z,4.67
2023-03-06T14:48:40.094Z,4.53
2023-03-06T14:51:09.876Z,5.40
2023-03-06T14:53:39.705Z,5.67
2023-03-06T14:56:09.051Z,4.60
2023-03-06T14:58:38.563Z,4.53
2023-03-06T15:01:09.212Z,4.87
2023-03-06T15:03:43.568Z,5.23
2023-03-06T15:06:13.147Z,6.10
2023-03-06T15:08:44.811Z,5.60
2023-03-06T15:11:14.233Z,6.33
2023-03-06T15:13:42.645Z,5.47
2023-03-06T15:16:24.679Z,6.97
2023-03-06T15:18:56.979Z,5.17
2023-03-06T15:21:26.611Z,5.53
2023-03-06T15:23:56.723Z,5.37
2023-03-06T15:26:31.230Z,5.03
2023-03-06T15:29:08.953Z,5.00
2023-03-06T15:31:39.212Z,6.07
2023-03-06T15:34:23.689Z,4.90
2023-03-06T15:36:55.928Z,5.03
2023-03-06T15:39:36.063Z,4.70
2023-03-06T15:42:06.042Z,5.33
2023-03-06T15:44:34.777Z,4.97
2023-03-06T15:47:08.849Z,6.23
2023-03-06T15:49:38.683Z,4.67
2023-03-06T15:52:07.211Z,5.50
2023-03-06T15:54:37.205Z,5.27
2023-03-06T15:57:07.036Z,5.60
2023-03-06T15:59:38.859Z,5.80
2023-03-06T16:02:13.814Z,5.40
2023-03-06T16:04:42.757Z,5.40
2023-03-06T16:07:11.304Z,5.53
2023-03-06T16:09:41.595Z,4.87
2023-03-06T16:12:15.803Z,4.80
2023-03-06T16:14:44.277Z,5.60
2023-03-06T16:17:13.166Z,6.20
2023-03-06T16:19:41.926Z,6.03
2023-03-06T16:22:10.476Z,5.67
2023-03-06T16:24:39.291Z,5.33
2023-03-06T16:27:09.223Z,5.60
2023-03-06T16:29:37.925Z,5.30
2023-03-06T16:32:06.521Z,5.70
2023-03-06T16:34:34.524Z,5.13
2023-03-06T16:37:02.938Z,5.33
2023-03-06T16:39:31.287Z,5.23
2023-03-06T16:41:59.624Z,4.97
2023-03-06T16:44:29.425Z,5.17
2023-03-06T16:46:57.894Z,5.37
2023-03-06T16:49:26.890Z,4.83
2023-03-06T16:51:56.299Z,5.03
2023-03-06T16:54:26.247Z,5.10
2023-03-06T16:56:54.726Z,5.93
2023-03-06T16:59:24.920Z,4.80
2023-03-06T17:01:54.677Z,4.67
2023-03-06T17:04:23.218Z,4.93
2023-03-06T17:06:52.912Z,5.00
2023-03-06T17:09:21.340Z,4.53
2023-03-06T17:11:49.798Z,5.07
2023-03-06T17:14:18.250Z,5.27
2023-03-06T17:16:46.611Z,5.80
2023-03-06T17:19:16.741Z,5.03
2023-03-06T17:21:45.352Z,5.63
2023-03-06T17:24:13.844Z,5.33
2023-03-06T17:26:43.414Z,6.40
2023-03-06T17:29:12.159Z,6.97
2023-03-06T17:31:40.540Z,6.20
2023-03-06T17:34:09.020Z,6.30
2023-03-06T17:36:38.713Z,6.40
2023-03-06T17:39:08.261Z,6.07
2023-03-06T17:41:44.663Z,6.23
2023-03-06T17:44:16.423Z,6.53
2023-03-06T17:46:44.872Z,7.53
2023-03-06T17:49:13.249Z,6.70
2023-03-06T17:51:42.970Z,6.10
2023-03-06T17:54:11.474Z,6.97
2023-03-06T17:56:39.834Z,7.07
2023-03-06T17:59:08.203Z,6.97
2023-03-06T18:01:36.605Z,7.03
2023-03-06T18:04:05.001Z,7.03
2023-03-06T18:06:33.774Z,7.47
2023-03-06T18:09:03.876Z,7.03
2023-03-06T18:11:32.611Z,6.50
2023-03-06T18:14:00.976Z,7.30
2023-03-06T18:16:29.371Z,7.00
2023-03-06T18:18:58.572Z,7.23
2023-03-06T18:21:27.372Z,6.60
2023-03-06T18:23:55.748Z,6.97
2023-03-06T18:26:26.894Z,7.57
2023-03-06T18:28:56.535Z,7.10
2023-03-06T18:31:26.152Z,6.67
2023-03-06T18:33:55.444Z,6.47
2023-03-06T18:36:24.858Z,7.07
2023-03-06T18:38:53.289Z,6.33
2023-03-06T18:41:22.380Z,6.70
2023-03-06T18:43:54.914Z,5.57
2023-03-06T18:46:24.050Z,6.43
2023-03-06T18:48:52.366Z,6.30
2023-03-06T18:51:20.790Z,7.47
2023-03-06T18:53:49.329Z,7.27
2023-03-06T18:56:18.708Z,7.77
2023-03-06T18:58:47.108Z,7.03
2023-03-06T19:01:16.891Z,7.53
2023-03-06T19:03:45.344Z,7.00
2023-03-06T19:06:14.787Z,7.50
2023-03-06T19:08:43.246Z,7.93
2023-03-06T19:11:13.655Z,6.60
2023-03-06T19:13:42.143Z,7.40
2023-03-06T19:16:11.243Z,8.17
2023-03-06T19:18:42.382Z,8.60
2023-03-06T19:21:11.691Z,9.10
2023-03-06T19:23:40.308Z,8.10
2023-03-06T19:26:09.170Z,8.40
2023-03-06T19:28:38.653Z,10.13
2023-03-06T19:31:13.478Z,7.93
2023-03-06T19:33:43.603Z,9.83
2023-03-06T19:36:12.935Z,8.80
2023-03-06T19:38:41.475Z,9.33
2023-03-06T19:41:13.543Z,10.00
2023-03-06T19:43:41.992Z,10.73
2023-03-06T19:46:12.756Z,9.27
2023-03-06T19:48:42.904Z,11.47
2023-03-06T19:51:11.829Z,9.43
2023-03-06T19:53:40.605Z,8.37
2023-03-06T19:56:10.534Z,9.37
2023-03-06T19:58:40.576Z,10.10
2023-03-06T20:01:10.562Z,10.90
2023-03-06T20:03:40.241Z,10.13
2023-03-06T20:06:13.821Z,8.87
2023-03-06T20:08:42.648Z,8.33
2023-03-06T20:11:17.476Z,10.17
2023-03-06T20:13:47.301Z,9.33
2023-03-06T20:16:16.430Z,9.20
2023-03-06T20:18:45.879Z,10.63
2023-03-06T20:21:16.245Z,9.87
2023-03-06T20:23:44.591Z,9.13
2023-03-06T20:26:14.252Z,9.87
2023-03-06T20:28:44.219Z,8.67
2023-03-06T20:31:16.753Z,8.73
2023-03-06T20:33:45.391Z,8.60
2023-03-06T20:36:14.416Z,9.20
2023-03-06T20:38:44.383Z,8.97
2023-03-06T20:41:15.626Z,9.57
2023-03-06T20:43:44.308Z,9.10
2023-03-06T20:46:14.010Z,8.90
2023-03-06T20:48:42.823Z,9.07
2023-03-06T20:51:15.041Z,9.17
2023-03-06T20:53:44.945Z,7.03
2023-03-06T20:56:14.618Z,8.87
2023-03-06T20:58:43.282Z,9.40
2023-03-06T21:01:19.608Z,7.97
2023-03-06T21:03:48.035Z,9.93
2023-03-06T21:06:16.653Z,6.90
2023-03-06T21:08:46.453Z,8.47
2023-03-06T21:11:14.976Z,7.47
2023-03-06T21:13:43.642Z,8.27
2023-03-06T21:16:12.912Z,10.17
2023-03-06T21:18:41.517Z,10.77
2023-03-06T21:21:10.593Z,8.53
2023-03-06T21:23:39.580Z,12.13
2023-03-06T21:26:09.380Z,8.60
2023-03-06T21:28:37.782Z,8.70
2023-03-06T21:31:08.670Z,6.40
2023-03-06T21:33:38.188Z,6.90
2023-03-06T21:36:06.822Z,7.23
2023-03-06T21:38:35.518Z,7.23
2023-03-06T21:41:09.926Z,5.80
2023-03-06T21:43:38.521Z,6.47
2023-03-06T21:46:07.231Z,7.53
2023-03-06T21:48:35.734Z,7.00
2023-03-06T21:51:08.544Z,6.73
2023-03-06T21:53:37.341Z,6.17
2023-03-06T21:56:06.329Z,6.87
2023-03-06T21:58:36.347Z,6.90
2023-03-06T22:01:09.471Z,8.43
2023-03-06T22:03:38.036Z,6.67
2023-03-06T22:06:10.529Z,7.00
2023-03-06T22:08:38.997Z,7.20
2023-03-06T22:11:08.383Z,7.13
2023-03-06T22:13:38.566Z,7.00
2023-03-06T22:16:07.487Z,6.77
2023-03-06T22:18:36.341Z,6.03
2023-03-06T22:21:07.821Z,7.33
2023-03-06T22:23:36.172Z,6.43
2023-03-06T22:26:05.117Z,7.10
2023-03-06T22:28:33.610Z,7.43
2023-03-06T22:31:07.277Z,6.50
2023-03-06T22:33:36.393Z,6.97
2023-03-06T22:36:06.286Z,5.97
2023-03-06T22:38:34.981Z,4.73
2023-03-06T22:41:03.688Z,6.63
2023-03-06T22:43:34.542Z,7.43
2023-03-06T22:46:03.659Z,6.73
2023-03-06T22:48:33.499Z,6.53
2023-03-06T22:51:05.625Z,6.20
2023-03-06T22:53:34.493Z,7.13
2023-03-06T22:56:03.583Z,6.97
2023-03-06T22:58:34.460Z,6.97
2023-03-06T23:01:05.849Z,6.80
2023-03-06T23:03:36.630Z,5.70
2023-03-06T23:06:07.157Z,6.13
2023-03-06T23:08:35.558Z,6.60
2023-03-06T23:11:04.561Z,6.37
2023-03-06T23:13:32.850Z,6.40
2023-03-06T23:16:03.241Z,6.17
2023-03-06T23:18:32.931Z,7.00
2023-03-06T23:21:02.930Z,6.07
2023-03-06T23:23:31.396Z,6.57
2023-03-06T23:26:00.996Z,6.10
2023-03-06T23:28:29.431Z,7.30
2023-03-06T23:30:57.938Z,6.23
2023-03-06T23:33:26.534Z,6.00
2023-03-06T23:35:55.130Z,6.00
2023-03-06T23:38:25.041Z,6.60
2023-03-06T23:40:53.603Z,6.40
2023-03-06T23:43:22.043Z,6.37
2023-03-06T23:45:59.510Z,6.30
2023-03-06T23:48:28.249Z,2.90
2023-03-06T23:50:56.733Z,5.60
2023-03-06T23:53:26.522Z,6.23
2023-03-06T23:55:55.176Z,6.67
2023-03-06T23:58:23.616Z,6.10
